Time;durP1;ratioP1;P1;durP2;ratioP2;P2;SDS_P1;SDS_P2;PMS_P1;PMS_P2;Temp;Humidity;BMP_temperature;BMP_pressure;BME280_temperature;BME280_humidity;BME280_pressure;Samples;Min_cycle;Max_cycle;Signal;HPM_P1;HPM_P2
2023/01/06 00:01:28;;;;;;;15.10;5.10;;;;;;;4.51;100.00;100970.41;3640707;79;98079;-93
2023/01/06 00:06:30;;;;;;;17.30;5.30;;;;;;;4.50;100.00;100985.17;3626886;80;33068;-92
2023/01/06 00:11:32;;;;;;;15.77;4.63;;;;;;;4.50;100.00;100991.44;3631811;80;98422;-92
2023/01/06 00:16:32;;;;;;;12.13;4.50;;;;;;;4.48;100.00;100998.33;3633709;80;35390;-91
2023/01/06 00:21:33;;;;;;;13.07;5.00;;;;;;;4.48;100.00;100996.97;3623039;80;98657;-94
2023/01/06 00:26:34;;;;;;;14.63;4.50;;;;;;;4.47;100.00;101007.05;3640618;80;32434;-92
2023/01/06 00:31:37;;;;;;;10.63;4.35;;;;;;;4.47;100.00;101007.05;3632402;80;98778;-93
2023/01/06 00:36:38;;;;;;;20.87;4.70;;;;;;;4.46;100.00;101010.09;3626795;80;26345;-90
2023/01/06 00:46:59;;;;;;;11.60;4.22;;;;;;;4.41;100.00;101026.06;3637480;80;34879;-90
2023/01/06 00:52:00;;;;;;;15.85;4.92;;;;;;;4.39;100.00;101028.31;3636238;79;98485;-93
2023/01/06 00:57:02;;;;;;;18.97;5.43;;;;;;;4.36;100.00;101027.58;3639421;80;25963;-93
2023/01/06 01:02:03;;;;;;;12.83;5.20;;;;;;;4.34;100.00;101029.84;3640510;79;98511;-94
2023/01/06 01:07:04;;;;;;;10.93;4.50;;;;;;;4.30;100.00;101041.13;3649866;79;32530;-93
2023/01/06 01:12:11;;;;;;;11.55;4.40;;;;;;;4.27;100.00;101043.70;3643509;79;98731;-92
2023/01/06 01:17:18;;;;;;;10.98;4.58;;;;;;;4.19;100.00;101039.03;3641063;79;35124;-93
2023/01/06 01:22:19;;;;;;;13.88;4.05;;;;;;;4.12;100.00;101050.97;3655057;79;98716;-92
2023/01/06 01:27:20;;;;;;;11.83;4.30;;;;;;;4.01;100.00;101047.76;3648376;80;33031;-93
2023/01/06 01:32:21;;;;;;;11.30;4.43;;;;;;;3.94;100.00;101052.06;3647857;79;98642;-93
2023/01/06 01:37:21;;;;;;;12.33;5.00;;;;;;;3.84;100.00;101055.08;3645704;79;32492;-93
2023/01/06 01:42:22;;;;;;;17.20;5.53;;;;;;;3.74;100.00;101066.27;3645412;79;98698;-92
2023/01/06 01:47:45;;;;;;;16.10;5.80;;;;;;;3.60;100.00;101057.43;3646173;79;32425;-93
2023/01/06 01:52:51;;;;;;;18.45;6.17;;;;;;;3.47;100.00;101069.21;3661638;79;97886;-94
2023/01/06 01:58:15;;;;;;;14.83;5.00;;;;;;;3.33;100.00;101077.47;3662230;79;32497;-94
2023/01/06 02:03:18;;;;;;;14.55;4.87;;;;;;;3.18;100.00;101077.87;3643856;79;98564;-94
2023/01/06 02:08:35;;;;;;;16.45;5.05;;;;;;;3.05;100.00;101080.13;3647371;79;34988;-95
2023/01/06 02:13:40;;;;;;;15.90;5.13;;;;;;;2.93;100.00;101083.98;3637079;79;98430;-93
2023/01/06 02:19:23;;;;;;;12.23;4.95;;;;;;;2.80;100.00;101079.39;3649599;79;35711;-94
2023/01/06 02:24:38;;;;;;;14.05;4.72;;;;;;;2.73;100.00;101079.03;3642645;79;98268;-94
2023/01/06 02:30:11;;;;;;;14.68;5.47;;;;;;;2.65;100.00;101087.13;3644979;79;34404;-92
2023/01/06 02:35:42;;;;;;;14.65;5.78;;;;;;;2.58;100.00;101079.97;3657693;79;98985;-92
2023/01/06 02:41:22;;;;;;;18.42;7.37;;;;;;;2.53;100.00;101076.01;3654004;80;35511;-93
2023/01/06 02:46:36;;;;;;;19.67;6.50;;;;;;;2.48;100.00;101091.88;3638786;79;31931;-93
2023/01/06 02:51:52;;;;;;;15.23;6.15;;;;;;;2.44;100.00;101090.06;3639207;80;98574;-93
2023/01/06 02:56:58;;;;;;;16.07;6.72;;;;;;;2.38;100.00;101085.86;3640651;80;32963;-93
2023/01/06 03:02:00;;;;;;;14.58;6.12;;;;;;;2.34;100.00;101092.47;3627857;80;98664;-93
2023/01/06 03:07:04;;;;;;;22.90;9.10;;;;;;;2.27;100.00;101091.28;3634026;80;34696;-93
2023/01/06 03:12:19;;;;;;;29.02;10.60;;;;;;;2.24;100.00;101093.27;3630773;80;98868;-93
2023/01/06 03:17:20;;;;;;;22.48;9.45;;;;;;;2.22;100.00;101090.84;3638892;80;34000;-92
2023/01/06 03:22:23;;;;;;;29.30;11.10;;;;;;;2.21;100.00;101091.14;3607728;80;98866;-92
2023/01/06 03:27:26;;;;;;;24.60;10.70;;;;;;;2.20;100.00;101091.69;3637297;80;33563;-93
2023/01/06 03:32:49;;;;;;;26.07;11.38;;;;;;;2.20;100.00;101090.33;3634094;80;98930;-92
2023/01/06 03:38:23;;;;;;;26.33;10.63;;;;;;;2.16;100.00;101085.83;3648070;79;35549;-92
2023/01/06 03:43:44;;;;;;;24.43;11.45;;;;;;;2.20;100.00;101095.76;3628952;79;99067;-92
2023/01/06 03:49:11;;;;;;;22.87;10.15;;;;;;;2.23;100.00;101087.56;3644143;79;34834;-93
2023/01/06 03:54:47;;;;;;;30.55;12.23;;;;;;;2.23;100.00;101094.34;3617453;81;98936;-92
2023/01/06 04:00:05;;;;;;;30.20;14.30;;;;;;;2.26;100.00;101103.25;3514361;80;30106;-93
2023/01/06 04:05:17;;;;;;;26.87;10.53;;;;;;;2.30;100.00;101106.98;3620107;80;98842;-92
2023/01/06 04:10:21;;;;;;;30.03;12.17;;;;;;;2.32;100.00;101092.52;3624043;80;32125;-93
2023/01/06 04:15:25;;;;;;;26.20;11.18;;;;;;;2.35;100.00;101093.28;3618000;79;98869;-92
2023/01/06 04:20:29;;;;;;;25.65;9.70;;;;;;;2.40;100.00;101094.53;3623141;81;35901;-93
2023/01/06 04:25:30;;;;;;;35.80;13.18;;;;;;;2.42;100.00;101086.33;3635823;80;98631;-94
2023/01/06 04:30:31;;;;;;;22.60;10.43;;;;;;;2.46;100.00;101091.94;3624145;80;32504;-93
2023/01/06 04:35:32;;;;;;;23.83;10.80;;;;;;;2.47;100.00;101085.39;3618192;80;98793;-93
2023/01/06 04:40:32;;;;;;;34.97;14.03;;;;;;;2.49;100.00;101089.41;3617406;80;32487;-93
2023/01/06 04:45:35;;;;;;;34.33;13.60;;;;;;;2.53;100.00;101090.41;3610706;80;98925;-93
2023/01/06 04:50:37;;;;;;;33.70;14.07;;;;;;;2.58;100.00;101088.12;3636342;80;32500;-93
2023/01/06 04:55:39;;;;;;;38.03;15.27;;;;;;;2.61;100.00;101083.41;3632747;79;98962;-94
2023/01/06 05:00:40;;;;;;;44.42;18.50;;;;;;;2.64;100.00;101097.75;3648232;79;35022;-93
2023/01/06 05:05:41;;;;;;;56.10;21.67;;;;;;;2.69;100.00;101088.91;3643929;79;98864;-93
2023/01/06 05:10:41;;;;;;;43.23;18.90;;;;;;;2.72;100.00;101084.23;3651526;79;32532;-94
2023/01/06 05:15:42;;;;;;;36.50;16.53;;;;;;;2.74;100.00;101084.71;3641573;79;98929;-93
2023/01/06 05:20:43;;;;;;;31.07;14.50;;;;;;;2.79;100.00;101075.65;3654710;79;32422;-93
2023/01/06 05:25:44;;;;;;;24.17;11.07;;;;;;;2.83;100.00;101078.79;3645409;79;98952;-93
2023/01/06 05:30:45;;;;;;;22.07;9.43;;;;;;;2.87;100.00;101084.41;3683834;78;32413;-92
2023/01/06 05:35:46;;;;;;;19.70;7.43;;;;;;;2.88;100.00;101078.66;3654935;79;98341;-93
2023/01/06 05:40:52;;;;;;;37.87;18.50;;;;;;;2.92;100.00;101100.05;3667185;79;32448;-92
2023/01/06 05:45:54;;;;;;;21.62;8.90;;;;;;;2.98;100.00;101100.70;3645810;79;98340;-92
2023/01/06 05:51:11;;;;;;;16.77;6.45;;;;;;;3.04;100.00;101104.91;3656569;79;33038;-92
2023/01/06 05:56:16;;;;;;;18.92;8.20;;;;;;;3.04;100.00;101088.59;3647770;79;25779;-92
2023/01/06 06:01:21;;;;;;;16.70;7.20;;;;;;;3.04;100.00;101088.05;3644706;80;109477;-92
2023/01/06 06:06:25;;;;;;;17.93;7.03;;;;;;;3.07;100.00;101092.06;3650353;80;25899;-93
2023/01/06 06:11:26;;;;;;;16.05;7.55;;;;;;;3.08;100.00;101086.86;3651781;79;98705;-92
2023/01/06 06:16:28;;;;;;;17.90;7.63;;;;;;;3.05;100.00;101080.13;3661418;79;30552;-92
2023/01/06 06:21:30;;;;;;;21.63;8.93;;;;;;;3.07;100.00;101098.86;3642515;79;98848;-93
2023/01/06 06:26:31;;;;;;;17.17;7.72;;;;;;;3.14;100.00;101101.93;3653894;80;34892;-91
2023/01/06 06:31:32;;;;;;;20.13;7.77;;;;;;;3.17;100.00;101102.11;3657763;80;98663;-92
2023/01/06 06:36:33;;;;;;;17.98;8.05;;;;;;;3.18;100.00;101098.84;3647293;80;33911;-91
2023/01/06 06:41:34;;;;;;;18.00;8.45;;;;;;;3.21;100.00;101087.33;3638839;79;98754;-92
2023/01/06 06:46:35;;;;;;;15.77;6.77;;;;;;;3.24;100.00;101101.67;3645285;79;32509;-92
2023/01/06 06:51:35;;;;;;;15.47;6.63;;;;;;;3.27;100.00;101099.70;3638254;79;98714;-90
2023/01/06 06:56:36;;;;;;;17.83;7.67;;;;;;;3.30;100.00;101093.08;3630852;80;32483;-92
2023/01/06 07:01:37;;;;;;;14.65;6.28;;;;;;;3.30;100.00;101084.92;3620263;80;98469;-93
2023/01/06 07:06:38;;;;;;;16.80;7.10;;;;;;;3.34;100.00;101090.53;3636981;80;28201;-91
2023/01/06 07:11:39;;;;;;;23.73;10.83;;;;;;;3.30;100.00;101077.30;3621495;80;98616;-91
2023/01/06 07:16:39;;;;;;;23.27;9.27;;;;;;;3.29;100.00;101079.20;3617730;80;26613;-91
2023/01/06 07:21:40;;;;;;;18.33;8.13;;;;;;;3.28;100.00;101074.89;3635761;79;98523;-93
2023/01/06 07:26:41;;;;;;;21.00;9.83;;;;;;;3.27;100.00;101078.72;3635240;79;26027;-93
2023/01/06 07:31:42;;;;;;;25.62;11.90;;;;;;;3.27;100.00;101079.30;3646495;79;98674;-92
2023/01/06 07:36:43;;;;;;;21.67;9.43;;;;;;;3.34;100.00;101072.84;3642642;80;25874;-92
2023/01/06 07:41:43;;;;;;;19.63;7.93;;;;;;;3.38;100.00;101070.53;3632168;80;98813;-92
2023/01/06 07:46:44;;;;;;;21.20;8.10;;;;;;;3.39;100.00;101073.50;3642241;78;33199;-92
2023/01/06 07:51:45;;;;;;;18.37;6.97;;;;;;;3.41;100.00;101074.00;3637339;80;98721;-91
2023/01/06 07:56:46;;;;;;;14.50;5.37;;;;;;;3.44;100.00;101063.05;3652437;80;33541;-92
2023/01/06 08:01:46;;;;;;;11.83;5.20;;;;;;;3.45;100.00;101054.55;3648915;80;98457;-93
2023/01/06 08:06:47;;;;;;;18.83;7.47;;;;;;;3.47;100.00;101058.33;3645479;80;32922;-91
2023/01/06 08:11:48;;;;;;;15.80;8.00;;;;;;;3.49;100.00;101052.81;3640936;79;98863;-93
2023/01/06 08:16:49;;;;;;;15.77;7.90;;;;;;;3.52;100.00;101047.30;3657880;79;32980;-92
2023/01/06 08:21:50;;;;;;;19.30;8.07;;;;;;;3.55;100.00;101045.33;3646311;80;98841;-91
2023/01/06 08:26:51;;;;;;;14.90;6.37;;;;;;;3.55;100.00;101037.95;3648113;80;31702;-93
2023/01/06 08:31:55;;;;;;;14.87;6.60;;;;;;;3.59;100.00;101044.37;3633070;80;98980;-90
2023/01/06 08:36:56;;;;;;;14.30;6.13;;;;;;;3.64;100.00;101055.12;3645095;80;30086;-92
2023/01/06 08:41:57;;;;;;;16.57;7.10;;;;;;;3.65;100.00;101064.88;3648146;80;98536;-93
2023/01/06 08:46:57;;;;;;;19.43;7.83;;;;;;;3.71;100.00;101060.11;3645749;79;32174;-92
2023/01/06 08:51:58;;;;;;;23.47;9.10;;;;;;;3.78;100.00;101053.63;3646438;79;98961;-92
2023/01/06 08:56:59;;;;;;;23.10;9.13;;;;;;;3.81;100.00;101033.37;3633139;80;32215;-92
2023/01/06 09:02:00;;;;;;;20.80;8.07;;;;;;;3.88;100.00;101026.11;3623778;80;98508;-91
2023/01/06 09:07:01;;;;;;;14.87;6.07;;;;;;;3.95;100.00;101023.71;3622246;80;32122;-93
2023/01/06 09:12:02;;;;;;;11.05;5.00;;;;;;;4.04;100.00;101021.81;3654661;80;98528;-92
2023/01/06 09:17:03;;;;;;;10.07;5.67;;;;;;;4.04;100.00;101004.11;3642269;79;30508;-91
2023/01/06 09:22:04;;;;;;;13.07;4.83;;;;;;;4.08;100.00;100996.87;3638008;79;98171;-94
2023/01/06 09:27:05;;;;;;;11.63;4.20;;;;;;;4.13;100.00;101006.25;3646702;79;34879;-93
2023/01/06 09:32:06;;;;;;;9.40;3.93;;;;;;;4.15;100.00;100991.77;3636205;80;98441;-92
2023/01/06 09:37:07;;;;;;;10.83;4.83;;;;;;;4.18;100.00;100985.13;3639110;80;34815;-91
2023/01/06 09:42:37;;;;;;;12.70;4.63;;;;;;;4.22;100.00;100981.19;3630884;80;98825;-94
2023/01/06 09:47:44;;;;;;;19.00;8.88;;;;;;;4.25;100.00;100966.36;3639681;80;32477;-92
2023/01/06 09:53:16;;;;;;;11.90;5.67;;;;;;;4.29;100.00;100975.50;3596352;80;98804;-91
2023/01/06 09:58:41;;;;;;;16.73;6.85;;;;;;;4.30;100.00;100980.38;3559210;82;31191;-92
2023/01/06 10:03:45;;;;;;;18.27;8.33;;;;;;;4.31;100.00;100962.34;3549292;81;98673;-92
2023/01/06 10:09:12;;;;;;;73.22;30.82;;;;;;;4.31;100.00;100944.64;3567392;80;31798;-95
2023/01/06 10:14:45;;;;;;;31.40;15.55;;;;;;;4.30;100.00;100937.59;3564390;80;98719;-88
2023/01/06 10:20:29;;;;;;;20.13;9.03;;;;;;;4.33;100.00;100920.61;3564194;81;27933;-96
2023/01/06 10:25:41;;;;;;;24.52;9.38;;;;;;;4.34;100.00;100920.84;3548959;82;98424;-91
2023/01/06 10:30:51;;;;;;;22.75;13.88;;;;;;;4.34;100.00;100909.13;3536107;82;32486;-93
2023/01/06 10:35:54;;;;;;;17.37;8.78;;;;;;;4.37;100.00;100894.29;3542215;81;98402;-92
2023/01/06 10:41:01;;;;;;;22.30;13.28;;;;;;;4.36;100.00;100893.28;3484116;82;27925;-91
2023/01/06 10:46:01;;;;;;;25.00;13.78;;;;;;;4.39;100.00;100891.25;3524708;82;26397;-92
2023/01/06 10:51:32;;;;;;;21.63;10.30;;;;;;;4.34;100.00;100877.25;3520488;82;99051;-88
2023/01/06 10:56:36;;;;;;;29.82;11.95;;;;;;;4.37;100.00;100864.31;3511711;82;32297;-89
2023/01/06 11:01:54;;;;;;;27.70;11.65;;;;;;;4.35;100.00;100852.14;3475263;83;99059;-93
2023/01/06 11:06:59;;;;;;;27.20;12.25;;;;;;;4.35;100.00;100831.16;3469543;83;31734;-92
2023/01/06 11:12:05;;;;;;;30.97;13.35;;;;;;;4.35;100.00;100812.08;3500880;82;98831;-92
2023/01/06 11:17:14;;;;;;;27.20;13.80;;;;;;;4.32;100.00;100787.42;3555874;80;26134;-89
2023/01/06 11:22:34;;;;;;;24.63;12.45;;;;;;;4.30;100.00;100777.39;3553388;79;98952;-93
2023/01/06 11:27:35;;;;;;;29.55;13.72;;;;;;;4.31;100.00;100768.90;3555898;82;30580;-93
2023/01/06 11:32:35;;;;;;;55.67;28.73;;;;;;;4.33;100.00;100772.11;3569570;82;99093;-89
2023/01/06 11:37:40;;;;;;;33.30;15.07;;;;;;;4.30;100.00;100762.41;3571448;81;35590;-91
2023/01/06 11:42:41;;;;;;;56.83;23.13;;;;;;;4.33;100.00;100769.94;3571830;81;99075;-91
2023/01/06 11:47:47;;;;;;;36.53;18.03;;;;;;;4.38;100.00;100752.05;3565208;81;35562;-92
2023/01/06 11:53:01;;;;;;;34.17;14.07;;;;;;;4.37;100.00;100755.91;3565911;80;98698;-88
2023/01/06 11:58:18;;;;;;;28.32;12.20;;;;;;;4.40;100.00;100748.42;3563066;81;29927;-89
2023/01/06 12:03:43;;;;;;;20.30;11.33;;;;;;;4.42;100.00;100724.39;3563144;81;98605;-88
2023/01/06 12:09:13;;;;;;;21.20;10.13;;;;;;;4.44;100.00;100706.58;3581519;80;29833;-91
2023/01/06 12:14:28;;;;;;;24.85;10.60;;;;;;;4.48;100.00;100690.37;3584358;80;98954;-89
2023/01/06 12:20:04;;;;;;;23.98;11.65;;;;;;;4.49;100.00;100683.23;3595568;80;32288;-90
2023/01/06 12:25:43;;;;;;;21.05;10.98;;;;;;;4.54;100.00;100675.42;3572805;80;98749;-88
2023/01/06 12:31:27;;;;;;;20.23;9.95;;;;;;;4.56;100.00;100663.61;3584905;80;30425;-89
2023/01/06 12:36:36;;;;;;;25.48;11.00;;;;;;;4.55;100.00;100658.73;3592934;80;30941;-92
2023/01/06 12:41:48;;;;;;;17.70;8.63;;;;;;;4.58;100.00;100649.88;3581208;80;98782;-92
2023/01/06 12:47:17;;;;;;;18.92;8.93;;;;;;;4.58;100.00;100649.11;3607015;80;28896;-91
2023/01/06 12:52:39;;;;;;;20.95;9.48;;;;;;;4.56;100.00;100636.35;3577182;80;98982;-92
2023/01/06 12:58:13;;;;;;;21.80;9.90;;;;;;;4.57;100.00;100635.22;3609888;80;30805;-93
2023/01/06 13:03:29;;;;;;;21.00;9.88;;;;;;;4.58;100.00;100615.81;3600691;80;98584;-89
2023/01/06 13:08:53;;;;;;;19.00;9.50;;;;;;;4.55;100.00;100614.32;3561899;80;30807;-93
2023/01/06 13:14:05;;;;;;;18.80;9.93;;;;;;;4.52;100.00;100618.51;3398680;81;98239;-93
2023/01/06 13:19:40;;;;;;;25.95;12.55;;;;;;;4.49;100.00;100617.02;3482836;82;31708;-92
2023/01/06 13:24:53;;;;;;;24.60;12.00;;;;;;;4.51;100.00;100616.11;3472632;82;98528;-87
2023/01/06 13:30:11;;;;;;;31.27;16.07;;;;;;;4.51;100.00;100626.45;3450106;82;30377;-91
2023/01/06 13:35:32;;;;;;;30.10;14.80;;;;;;;4.51;100.00;100618.83;3473344;82;98444;-94
2023/01/06 13:40:38;;;;;;;30.95;14.23;;;;;;;4.51;100.00;100616.11;3470818;83;29832;-92
2023/01/06 13:45:43;;;;;;;32.40;15.57;;;;;;;4.48;100.00;100596.34;3470385;82;98482;-88
2023/01/06 13:50:45;;;;;;;36.68;17.37;;;;;;;4.41;100.00;100591.97;3482415;83;31646;-96
2023/01/06 13:55:46;;;;;;;28.83;16.57;;;;;;;4.44;100.00;100607.67;3501722;81;98832;-94
2023/01/06 14:01:11;;;;;;;35.37;18.27;;;;;;;4.46;100.00;100617.66;3485391;82;34923;-95
2023/01/06 14:06:29;;;;;;;33.40;16.45;;;;;;;4.47;100.00;100611.11;3487799;82;31458;-95
2023/01/06 14:11:38;;;;;;;31.15;16.25;;;;;;;4.44;100.00;100609.03;3472661;82;98571;-96
2023/01/06 14:16:46;;;;;;;26.40;14.38;;;;;;;4.43;100.00;100594.59;3573904;82;31408;-96
2023/01/06 14:21:50;;;;;;;30.27;15.80;;;;;;;4.43;100.00;100589.15;3531080;82;99356;-96
2023/01/06 14:27:03;;;;;;;28.65;14.68;;;;;;;4.42;100.00;100578.02;3555949;81;31633;-96
2023/01/06 14:32:15;;;;;;;28.73;15.83;;;;;;;4.41;100.00;100581.88;3511648;82;99216;-94
2023/01/06 14:37:19;;;;;;;34.53;17.62;;;;;;;4.41;100.00;100584.61;3452131;83;29795;-92
2023/01/06 14:42:28;;;;;;;39.92;21.95;;;;;;;4.43;100.00;100572.02;3468221;83;99152;-93
2023/01/06 14:47:51;;;;;;;53.15;27.10;;;;;;;4.41;100.00;100562.81;3489646;83;29762;-92
2023/01/06 14:53:01;;;;;;;84.70;50.65;;;;;;;4.42;100.00;100566.34;3504462;81;98743;-94
2023/01/06 14:58:02;;;;;;;33.92;21.37;;;;;;;4.42;100.00;100560.31;3636894;80;31193;-95
2023/01/06 15:03:04;;;;;;;36.87;18.87;;;;;;;4.47;100.00;100547.85;3619536;79;99191;-91
2023/01/06 15:08:14;;;;;;;32.42;17.10;;;;;;;4.48;100.00;100533.09;3643589;80;31709;-93
2023/01/06 15:13:22;;;;;;;63.35;34.78;;;;;;;4.48;100.00;100524.13;3654499;79;99099;-93
2023/01/06 15:18:23;;;;;;;47.65;28.17;;;;;;;4.50;100.00;100528.67;3675668;75;30868;-93
2023/01/06 15:23:25;;;;;;;34.50;20.67;;;;;;;4.52;100.00;100515.50;3596185;79;99120;-93
2023/01/06 15:28:32;;;;;;;33.90;18.30;;;;;;;4.52;100.00;100512.22;3523559;83;34853;-93
2023/01/06 15:33:40;;;;;;;35.13;19.87;;;;;;;4.57;100.00;100516.11;3593826;79;98958;-94
2023/01/06 15:38:41;;;;;;;34.88;19.00;;;;;;;4.59;100.00;100514.41;3661461;80;32378;-91
2023/01/06 15:43:49;;;;;;;37.10;19.83;;;;;;;4.60;100.00;100515.45;3650091;79;99034;-95
2023/01/06 15:48:51;;;;;;;38.85;22.80;;;;;;;4.62;100.00;100517.81;3663395;78;28800;-91
2023/01/06 15:53:57;;;;;;;37.33;21.30;;;;;;;4.65;100.00;100510.34;3666396;79;99004;-92
2023/01/06 15:58:58;;;;;;;41.53;23.90;;;;;;;4.68;100.00;100518.64;3658371;79;26037;-92
2023/01/06 16:04:04;;;;;;;35.07;20.53;;;;;;;4.71;100.00;100519.35;3615941;79;98765;-94
2023/01/06 16:09:24;;;;;;;44.50;23.10;;;;;;;4.74;100.00;100524.12;3639825;80;31624;-96
2023/01/06 16:14:44;;;;;;;36.60;21.15;;;;;;;4.77;100.00;100520.73;3624716;79;98768;-90
2023/01/06 16:19:59;;;;;;;41.30;21.93;;;;;;;4.83;100.00;100522.66;3644909;79;30135;-90
2023/01/06 16:25:23;;;;;;;39.27;21.42;;;;;;;4.89;100.00;100518.03;3645756;79;98524;-91
2023/01/06 16:30:27;;;;;;;43.87;22.35;;;;;;;4.94;100.00;100521.11;3634905;79;29488;-93
2023/01/06 16:35:32;;;;;;;43.10;23.43;;;;;;;4.97;100.00;100506.81;3636731;79;98439;-92
2023/01/06 16:40:33;;;;;;;44.53;23.80;;;;;;;5.01;100.00;100497.60;3639289;79;26571;-89
2023/01/06 16:45:41;;;;;;;47.67;24.50;;;;;;;5.07;100.00;100499.56;3627290;79;98565;-91
2023/01/06 16:50:53;;;;;;;41.30;23.60;;;;;;;4.93;100.00;100457.61;3638998;79;27174;-89
2023/01/06 16:55:55;;;;;;;48.83;24.70;;;;;;;5.18;100.00;100497.98;3646761;80;98329;-89
2023/01/06 17:01:02;;;;;;;45.85;24.57;;;;;;;5.25;100.00;100488.08;3691242;79;31002;-89
2023/01/06 17:06:18;;;;;;;44.95;23.62;;;;;;;5.33;100.00;100495.38;3677716;80;31661;-88
2023/01/06 17:11:23;;;;;;;45.23;25.20;;;;;;;5.39;100.00;100503.56;3654279;79;98908;-89
2023/01/06 17:16:29;;;;;;;47.70;26.73;;;;;;;5.46;100.00;100505.73;3609328;80;31771;-87
2023/01/06 17:21:35;;;;;;;;;;;;;;;5.51;100.00;100485.04;3612208;80;99031;-87
2023/01/06 17:26:36;;;;;;;40.65;21.68;;;;;;;5.58;100.00;100512.00;3594404;81;29784;-89
2023/01/06 17:31:40;;;;;;;41.13;21.83;;;;;;;5.61;100.00;100516.76;3581438;80;99108;-90
2023/01/06 17:36:45;;;;;;;39.98;20.50;;;;;;;5.69;100.00;100525.98;3613718;80;31624;-90
2023/01/06 17:41:46;;;;;;;43.13;21.33;;;;;;;5.79;100.00;100525.52;3593502;80;98605;-91
2023/01/06 17:46:47;;;;;;;41.37;22.83;;;;;;;5.87;100.00;100526.80;3615690;80;36000;-89
2023/01/06 17:51:50;;;;;;;37.93;20.23;;;;;;;5.98;100.00;100533.94;3602801;80;98713;-88
2023/01/06 17:56:52;;;;;;;34.60;19.10;;;;;;;6.06;100.00;100530.30;3615228;80;28880;-86
2023/01/06 18:01:53;;;;;;;35.83;19.12;;;;;;;6.16;100.00;100537.44;3607166;80;98674;-90
2023/01/06 18:06:54;;;;;;;37.57;19.13;;;;;;;6.25;100.00;100538.11;3613827;80;35631;-90
2023/01/06 18:11:58;;;;;;;33.63;18.77;;;;;;;6.33;100.00;100539.13;3611350;80;98629;-87
2023/01/06 18:17:10;;;;;;;30.88;17.17;;;;;;;6.42;100.00;100550.14;3608709;80;31714;-91
2023/01/06 18:22:22;;;;;;;28.85;16.45;;;;;;;6.50;100.00;100560.72;3605447;80;98632;-95
2023/01/06 18:27:32;;;;;;;32.83;16.52;;;;;;;6.57;100.00;100563.64;3606508;81;30804;-92
2023/01/06 18:32:35;;;;;;;31.15;15.95;;;;;;;6.66;100.00;100582.09;3602303;80;98905;-91
2023/01/06 18:37:36;;;;;;;28.50;14.70;;;;;;;6.74;100.00;100583.86;3629043;80;31682;-93
2023/01/06 18:42:44;;;;;;;29.00;15.73;;;;;;;6.83;100.00;100592.14;3620255;80;99049;-95
2023/01/06 18:47:55;;;;;;;27.15;16.00;;;;;;;6.91;100.00;100594.52;3622753;80;31729;-94
2023/01/06 18:53:13;;;;;;;32.08;18.15;;;;;;;6.94;100.00;100602.03;3635917;80;98960;-95
2023/01/06 18:58:48;;;;;;;33.40;19.48;;;;;;;6.97;100.00;100608.97;3669288;79;31578;-96
2023/01/06 19:03:55;;;;;;;28.80;16.75;;;;;;;7.00;100.00;100614.32;3674436;80;98671;-96
2023/01/06 19:08:56;;;;;;;26.35;15.32;;;;;;;7.03;100.00;100617.16;3665777;80;31414;-95
2023/01/06 19:14:02;;;;;;;30.60;17.40;;;;;;;7.06;100.00;100618.39;3654542;79;99078;-95
2023/01/06 19:19:37;;;;;;;28.80;15.83;;;;;;;7.08;100.00;100621.01;3671550;80;25366;-96
2023/01/06 19:24:44;;;;;;;23.50;13.28;;;;;;;7.06;100.00;100617.03;3662250;79;98519;-96
2023/01/06 19:29:45;;;;;;;22.07;12.73;;;;;;;7.17;100.00;100638.64;3692430;78;26007;-96
2023/01/06 19:34:45;;;;;;;20.53;12.13;;;;;;;7.20;100.00;100644.80;3672713;79;98082;-96
2023/01/06 19:39:55;;;;;;;20.57;11.30;;;;;;;7.24;100.00;100642.94;3682232;79;35965;-96
2023/01/06 19:44:59;;;;;;;22.27;12.82;;;;;;;7.27;100.00;100647.73;3690491;80;98481;-96
2023/01/06 19:50:12;;;;;;;21.55;12.65;;;;;;;7.30;100.00;100649.19;3683067;80;31814;-96
2023/01/06 19:55:24;;;;;;;18.48;11.63;;;;;;;7.34;100.00;100671.19;3652072;80;98454;-96
2023/01/06 20:00:47;;;;;;;19.37;12.58;;;;;;;7.34;100.00;100677.47;3604850;81;31588;-94
2023/01/06 20:05:48;;;;;;;23.00;12.93;;;;;;;7.38;100.00;100682.48;3522431;83;98831;-94
2023/01/06 20:10:55;;;;;;;25.80;14.13;;;;;;;7.40;100.00;100684.28;3538836;82;25885;-95
2023/01/06 20:15:56;;;;;;;24.30;13.53;;;;;;;7.42;100.00;100684.72;3529735;81;98648;-95
2023/01/06 20:20:56;;;;;;;21.67;11.63;;;;;;;7.44;100.00;100702.17;3539957;81;25942;-94
2023/01/06 20:26:00;;;;;;;22.73;12.60;;;;;;;7.44;100.00;100709.02;3573000;81;98827;-95
2023/01/06 20:31:01;;;;;;;21.77;12.58;;;;;;;7.46;100.00;100711.64;3577253;81;30703;-95
2023/01/06 20:36:02;;;;;;;22.67;13.03;;;;;;;7.47;100.00;100713.22;3578767;81;25873;-93
2023/01/06 20:41:04;;;;;;;22.67;12.60;;;;;;;7.50;100.00;100716.64;3573731;81;98802;-93
2023/01/06 20:46:07;;;;;;;24.80;13.03;;;;;;;7.51;100.00;100722.91;3605236;80;25785;-94
2023/01/06 20:51:07;;;;;;;20.82;12.33;;;;;;;7.50;100.00;100719.38;3590357;82;99005;-94
2023/01/06 20:56:08;;;;;;;25.27;12.63;;;;;;;7.50;100.00;100721.31;3612381;79;25872;-95
2023/01/06 21:01:09;;;;;;;24.07;14.33;;;;;;;7.52;100.00;100723.15;3638591;81;98667;-95
2023/01/06 21:06:10;;;;;;;26.70;13.93;;;;;;;7.53;100.00;100730.22;3641004;81;35448;-94
2023/01/06 21:11:13;;;;;;;22.13;13.33;;;;;;;7.51;100.00;100729.75;3626633;80;98597;-94
2023/01/06 21:16:13;;;;;;;22.00;15.00;;;;;;;7.51;100.00;100742.07;3647471;81;25874;-95
2023/01/06 21:21:14;;;;;;;22.10;13.83;;;;;;;7.47;100.00;100748.82;3628745;80;98787;-94
2023/01/06 21:26:15;;;;;;;19.40;11.75;;;;;;;7.40;100.00;100751.37;3629347;80;34967;-95
2023/01/06 21:31:16;;;;;;;21.50;13.07;;;;;;;7.34;100.00;100756.87;3623928;81;98604;-94
2023/01/06 21:36:17;;;;;;;20.97;11.83;;;;;;;7.26;100.00;100766.00;3639281;81;34957;-94
2023/01/06 21:46:39;;;;;;;25.00;12.68;;;;;;;7.06;100.00;100772.45;3630220;81;32221;-94
2023/01/06 21:51:40;;;;;;;21.05;11.95;;;;;;;6.95;100.00;100791.05;3626604;81;98801;-95
2023/01/06 21:56:41;;;;;;;21.00;11.48;;;;;;;6.91;100.00;100797.78;3629990;80;31652;-94
2023/01/06 22:01:42;;;;;;;19.97;11.03;;;;;;;6.84;100.00;100803.59;3632341;80;98762;-95
2023/01/06 22:06:43;;;;;;;19.50;11.20;;;;;;;6.70;100.00;100801.20;3638923;81;34876;-94
2023/01/06 22:11:46;;;;;;;19.17;11.37;;;;;;;6.62;100.00;100808.16;3626753;80;98852;-94
2023/01/06 22:16:47;;;;;;;23.73;13.47;;;;;;;6.52;100.00;100814.06;3637259;80;35463;-94
2023/01/06 22:21:47;;;;;;;23.30;12.80;;;;;;;6.43;100.00;100819.64;3624445;80;98541;-94
2023/01/06 22:26:51;;;;;;;19.30;12.43;;;;;;;6.34;100.00;100817.56;3638043;81;35955;-94
2023/01/06 22:31:52;;;;;;;22.03;10.83;;;;;;;6.23;100.00;100816.98;3630826;81;98761;-95
2023/01/06 22:36:52;;;;;;;19.27;10.10;;;;;;;6.10;100.00;100818.89;3632445;81;31126;-95
2023/01/06 22:41:53;;;;;;;15.27;8.50;;;;;;;6.00;100.00;100826.14;3625806;80;99115;-93
2023/01/06 22:46:54;;;;;;;14.77;8.43;;;;;;;5.90;100.00;100827.92;3645609;81;34851;-94
2023/01/06 22:51:55;;;;;;;16.40;8.57;;;;;;;5.76;100.00;100824.66;3631050;81;98518;-94
2023/01/06 22:56:56;;;;;;;14.87;8.97;;;;;;;5.70;100.00;100839.66;3638719;79;34818;-96
2023/01/06 23:01:57;;;;;;;17.67;9.60;;;;;;;5.57;100.00;100824.92;3663865;78;98439;-93
2023/01/06 23:06:58;;;;;;;15.60;8.07;;;;;;;5.45;100.00;100831.69;3659225;78;34785;-93
2023/01/06 23:11:59;;;;;;;15.08;8.48;;;;;;;5.36;100.00;100842.64;3664027;78;98516;-92
2023/01/06 23:16:59;;;;;;;15.80;8.80;;;;;;;5.24;100.00;100843.93;3663924;78;25872;-94
2023/01/06 23:22:00;;;;;;;17.20;9.00;;;;;;;5.13;100.00;100839.99;3668912;79;98535;-93
2023/01/06 23:27:01;;;;;;;17.97;9.43;;;;;;;5.02;100.00;100840.14;3661176;79;32963;-94
2023/01/06 23:32:02;;;;;;;15.77;8.30;;;;;;;4.96;100.00;100829.19;3657383;78;98589;-94